createdAt,value
2023-02-20T00:03:28.813Z,1.98
2023-02-20T00:08:32.573Z,1.70
2023-02-20T00:13:35.884Z,2.78
2023-02-20T00:18:40.480Z,1.98
2023-02-20T00:23:43.870Z,1.80
2023-02-20T00:28:47.322Z,2.70
2023-02-20T00:33:52.628Z,2.33
2023-02-20T00:44:00.640Z,2.35
2023-02-20T00:49:05.511Z,2.28
2023-02-20T00:54:24.084Z,3.65
2023-02-20T00:59:27.958Z,2.35
2023-02-20T01:04:34.589Z,2.87
2023-02-20T01:09:38.904Z,3.65
2023-02-20T01:14:43.038Z,2.88
2023-02-20T01:19:47.593Z,3.40
2023-02-20T01:24:51.006Z,4.60
2023-02-20T01:29:54.282Z,4.47
2023-02-20T01:34:58.725Z,2.78
2023-02-20T01:40:02.049Z,5.07
2023-02-20T01:45:16.776Z,3.35
2023-02-20T01:50:26.193Z,3.90
2023-02-20T01:55:32.833Z,4.57
2023-02-20T02:00:37.673Z,4.05
2023-02-20T02:05:46.344Z,4.50
2023-02-20T02:10:54.277Z,3.83
2023-02-20T02:16:07.119Z,3.80
2023-02-20T02:22:01.152Z,4.65
2023-02-20T02:27:38.146Z,3.78
2023-02-20T02:33:18.592Z,3.22
2023-02-20T02:38:40.432Z,4.43
2023-02-20T02:43:50.158Z,3.72
2023-02-20T02:49:04.723Z,4.03
2023-02-20T02:54:12.678Z,3.80
2023-02-20T02:59:21.458Z,3.70
2023-02-20T03:04:30.528Z,4.10
2023-02-20T03:09:43.697Z,3.72
2023-02-20T03:15:12.632Z,4.03
2023-02-20T03:20:19.236Z,4.18
2023-02-20T03:25:28.094Z,4.72
2023-02-20T03:30:39.085Z,4.60
2023-02-20T03:36:03.945Z,4.78
2023-02-20T03:41:31.183Z,4.82
2023-02-20T03:46:38.698Z,4.65
2023-02-20T03:51:42.725Z,4.07
2023-02-20T03:56:59.632Z,4.05
2023-02-20T04:02:08.353Z,3.63
2023-02-20T04:07:16.499Z,4.47
2023-02-20T04:12:25.227Z,4.55
2023-02-20T04:17:32.403Z,5.70
2023-02-20T04:22:43.662Z,5.68
2023-02-20T04:27:49.278Z,4.97
2023-02-20T04:32:52.524Z,4.30
2023-02-20T04:37:56.960Z,5.68
2023-02-20T04:43:01.918Z,5.50
2023-02-20T04:48:05.640Z,4.88
2023-02-20T04:53:08.912Z,5.53
2023-02-20T04:58:13.488Z,4.75
2023-02-20T05:03:36.832Z,5.03
2023-02-20T05:08:40.386Z,5.18
2023-02-20T05:13:44.919Z,4.82
2023-02-20T05:18:48.366Z,4.55
2023-02-20T05:23:51.961Z,4.25
2023-02-20T05:28:56.536Z,4.35
2023-02-20T05:33:59.940Z,5.10
2023-02-20T05:39:04.217Z,5.43
2023-02-20T05:44:09.464Z,4.70
2023-02-20T05:49:12.899Z,5.47
2023-02-20T05:54:16.896Z,6.05
2023-02-20T05:59:23.393Z,6.47
2023-02-20T06:04:27.617Z,5.53
2023-02-20T06:09:31.555Z,4.53
2023-02-20T06:14:36.590Z,6.18
2023-02-20T06:24:46.359Z,4.82
2023-02-20T06:29:51.133Z,5.03
2023-02-20T06:34:56.293Z,6.03
2023-02-20T06:40:00.500Z,6.22
2023-02-20T06:45:15.263Z,6.22
2023-02-20T06:50:20.152Z,6.43
2023-02-20T06:55:24.102Z,5.13
2023-02-20T07:00:30.929Z,6.17
2023-02-20T07:05:34.327Z,6.13
2023-02-20T07:10:38.053Z,7.40
2023-02-20T07:15:43.392Z,8.35
2023-02-20T07:20:49.303Z,7.38
2023-02-20T07:25:52.713Z,8.38
2023-02-20T07:30:58.811Z,9.32
2023-02-20T07:36:04.047Z,10.10
2023-02-20T07:41:12.061Z,8.43
2023-02-20T07:46:20.118Z,7.07
2023-02-20T07:51:24.609Z,7.78
2023-02-20T07:56:29.006Z,7.28
2023-02-20T08:01:35.151Z,7.47
2023-02-20T08:06:39.885Z,7.18
2023-02-20T08:11:43.819Z,7.20
2023-02-20T08:16:52.724Z,6.50
2023-02-20T08:21:56.711Z,7.50
2023-02-20T08:27:01.122Z,6.85
2023-02-20T08:32:09.341Z,6.63
2023-02-20T08:37:13.310Z,5.85
2023-02-20T08:42:17.839Z,6.13
2023-02-20T08:47:23.805Z,5.43
2023-02-20T08:52:28.163Z,5.32
2023-02-20T08:57:31.901Z,5.50
2023-02-20T09:02:37.859Z,5.20
2023-02-20T09:07:41.269Z,4.32
2023-02-20T09:12:46.845Z,4.97
2023-02-20T09:17:52.894Z,5.10
2023-02-20T09:22:59.322Z,5.03
2023-02-20T09:28:02.921Z,4.38
2023-02-20T09:33:08.886Z,4.00
2023-02-20T09:38:12.484Z,4.38
2023-02-20T09:43:27.651Z,3.50
2023-02-20T09:48:49.817Z,3.58
2023-02-20T09:54:01.753Z,3.90
2023-02-20T09:59:13.595Z,3.45
2023-02-20T10:04:23.610Z,4.20
2023-02-20T10:09:29.342Z,4.40
2023-02-20T10:15:00.518Z,3.63
2023-02-20T10:20:13.187Z,3.42
2023-02-20T10:25:25.837Z,3.97
2023-02-20T10:30:33.951Z,3.22
2023-02-20T10:35:44.911Z,3.30
2023-02-20T10:40:54.210Z,3.22
2023-02-20T10:46:04.469Z,2.65
2023-02-20T10:51:19.477Z,3.05
2023-02-20T10:56:31.236Z,3.40
2023-02-20T11:01:37.324Z,3.05
2023-02-20T11:06:51.747Z,3.25
2023-02-20T11:11:56.630Z,3.40
2023-02-20T11:17:03.646Z,2.80
2023-02-20T11:22:10.734Z,3.53
2023-02-20T11:27:17.333Z,3.65
2023-02-20T11:32:30.922Z,4.15
2023-02-20T11:37:49.185Z,3.95
2023-02-20T11:43:11.202Z,3.55
2023-02-20T11:48:17.659Z,4.57
2023-02-20T11:53:25.820Z,4.63
2023-02-20T11:58:30.176Z,5.20
2023-02-20T12:03:36.308Z,5.30
2023-02-20T12:08:53.905Z,5.43
2023-02-20T12:14:00.058Z,6.03
2023-02-20T12:19:13.031Z,5.82
2023-02-20T12:24:37.370Z,5.13
2023-02-20T12:29:47.132Z,5.50
2023-02-20T12:35:21.150Z,5.90
2023-02-20T12:40:37.709Z,5.88
2023-02-20T12:45:47.554Z,5.07
2023-02-20T12:51:02.059Z,6.78
2023-02-20T12:56:40.521Z,6.10
2023-02-20T13:01:45.152Z,6.60
2023-02-20T13:06:58.163Z,8.13
2023-02-20T13:12:07.636Z,7.40
2023-02-20T13:17:23.534Z,7.78
2023-02-20T13:22:27.072Z,8.00
2023-02-20T13:27:32.957Z,7.68
2023-02-20T13:32:37.107Z,8.15
2023-02-20T13:37:55.749Z,8.13
2023-02-20T13:43:34.005Z,9.23
2023-02-20T13:48:43.612Z,7.90
2023-02-20T13:53:51.211Z,9.30
2023-02-20T13:58:59.147Z,8.98
2023-02-20T14:04:07.644Z,9.32
2023-02-20T14:09:17.770Z,8.77
2023-02-20T14:14:31.415Z,8.05
2023-02-20T14:19:41.346Z,6.63
2023-02-20T14:24:45.802Z,6.25
2023-02-20T14:30:06.616Z,7.30
2023-02-20T14:35:24.248Z,6.18
2023-02-20T14:40:32.990Z,4.60
2023-02-20T14:45:39.365Z,5.88
2023-02-20T14:50:42.878Z,4.97
2023-02-20T14:55:49.193Z,5.53
2023-02-20T15:00:54.799Z,4.47
2023-02-20T15:06:01.828Z,3.85
2023-02-20T15:11:10.693Z,5.55
2023-02-20T15:16:19.156Z,4.10
2023-02-20T15:21:34.897Z,3.55
2023-02-20T15:26:38.726Z,3.50
2023-02-20T15:31:45.005Z,3.53
2023-02-20T15:36:49.586Z,3.53
2023-02-20T15:46:59.751Z,4.45
2023-02-20T15:52:09.474Z,4.40
2023-02-20T15:57:16.236Z,4.53
2023-02-20T16:02:23.260Z,4.35
2023-02-20T16:07:26.471Z,4.53
2023-02-20T16:12:33.350Z,6.50
2023-02-20T16:17:37.966Z,4.75
2023-02-20T16:22:41.293Z,4.40
2023-02-20T16:27:45.591Z,5.85
2023-02-20T16:32:50.964Z,9.40
2023-02-20T16:38:10.436Z,5.22
2023-02-20T16:43:14.113Z,6.53
2023-02-20T16:48:21.469Z,4.93
2023-02-20T16:53:31.763Z,5.35
2023-02-20T16:58:35.386Z,5.22
2023-02-20T17:03:40.085Z,4.63
2023-02-20T17:08:43.926Z,5.00
2023-02-20T17:13:47.087Z,5.30
2023-02-20T17:18:51.747Z,5.07
2023-02-20T17:23:55.077Z,5.03
2023-02-20T17:28:58.440Z,5.10
2023-02-20T17:34:05.440Z,5.53
2023-02-20T17:39:08.551Z,5.85
2023-02-20T17:44:15.200Z,6.25
2023-02-20T17:49:20.596Z,6.07
2023-02-20T17:59:30.303Z,5.78
2023-02-20T18:04:35.174Z,6.70
2023-02-20T18:09:38.730Z,5.95
2023-02-20T18:14:44.210Z,5.40
2023-02-20T18:24:53.048Z,6.25
2023-02-20T18:29:56.943Z,5.03
2023-02-20T18:35:01.529Z,5.25
2023-02-20T18:40:06.068Z,5.50
2023-02-20T18:45:09.903Z,6.95
2023-02-20T18:50:14.842Z,6.78
2023-02-20T18:55:18.364Z,5.45
2023-02-20T19:00:24.020Z,6.25
2023-02-20T19:05:29.108Z,5.30
2023-02-20T19:10:32.425Z,5.78
2023-02-20T19:15:36.578Z,5.47
2023-02-20T19:20:41.192Z,6.07
2023-02-20T19:25:44.758Z,6.07
2023-02-20T19:30:47.941Z,6.60
2023-02-20T19:35:52.823Z,5.50
2023-02-20T19:40:56.009Z,5.60
2023-02-20T19:45:59.434Z,5.40
2023-02-20T19:51:07.648Z,6.10
2023-02-20T19:56:11.693Z,6.93
2023-02-20T20:01:18.585Z,6.57
2023-02-20T20:06:26.633Z,6.50
2023-02-20T20:11:31.000Z,6.85
2023-02-20T20:16:37.636Z,6.22
2023-02-20T20:21:43.419Z,6.55
2023-02-20T20:26:46.832Z,6.30
2023-02-20T20:31:50.321Z,7.00
2023-02-20T20:36:54.944Z,6.18
2023-02-20T20:41:58.302Z,6.23
2023-02-20T20:47:03.742Z,5.88
2023-02-20T20:52:08.901Z,6.80
2023-02-20T21:02:15.970Z,6.25
2023-02-20T21:07:26.146Z,7.38
2023-02-20T21:12:29.892Z,6.82
2023-02-20T21:17:33.568Z,5.85
2023-02-20T21:22:41.711Z,6.07
2023-02-20T21:27:45.614Z,6.53
2023-02-20T21:32:49.340Z,6.35
2023-02-20T21:37:54.935Z,5.80
2023-02-20T21:43:16.684Z,5.85
2023-02-20T21:48:20.001Z,6.57
2023-02-20T21:53:24.896Z,5.78
2023-02-20T21:58:46.708Z,6.25
2023-02-20T22:03:51.804Z,5.53
2023-02-20T22:09:14.701Z,4.97
2023-02-20T22:14:36.948Z,5.25
2023-02-20T22:19:58.726Z,5.38
2023-02-20T22:25:22.538Z,4.65
2023-02-20T22:30:44.573Z,4.85
2023-02-20T22:36:06.580Z,4.70
2023-02-20T22:41:29.796Z,5.38
2023-02-20T22:46:51.737Z,4.95
2023-02-20T22:52:13.786Z,5.85
2023-02-20T22:57:36.963Z,4.75
2023-02-20T23:02:58.986Z,5.22
2023-02-20T23:08:20.606Z,5.00
2023-02-20T23:13:43.593Z,4.80
2023-02-20T23:19:05.412Z,4.60
2023-02-20T23:24:27.113Z,5.18
2023-02-20T23:29:50.509Z,4.43
2023-02-20T23:35:12.441Z,4.22
2023-02-20T23:40:36.939Z,4.88
2023-02-20T23:46:00.297Z,4.50
2023-02-20T23:51:27.695Z,4.20
2023-02-20T23:56:49.407Z,3.70
